Barboursville, West Virginia
Current Conditions -  °F | °C
As of 5:51 PM on Tuesday 25 Nov 2014 (Local Time) from KHTS Reporting Station
Clear Clear  
Wind Chill: 42°   Ceiling: Unl
Heat Index: 46°   Visibility: 10mi
Dew Point: 28°   Wind: 7mph
Humidity: 50%   Direction: 310°NW
Pressure: 30.08"   Gusts: NA
Location:  38.41°N, 82.29°W
Report Text: KHTS 252251Z 31006KT 10SM CLR 08/M02 A3008 RMK AO2 SLP190 T00781022
Loading
Personal Weather Stations






























Interactive Weather Map New forecast layout! Learn more

10-Day Weather Forecast

Advertisements
Track Severe Weather on mobile